CYQI

Yarmouth Airport

Yarmouth, , Canada
METAR CYQI 220600Z 28006KT 15SM SCT085 03/01 A3018 RMK AC4 SLP223
Observed Flight Rules
Apr-22 @ 06:00 UTC (51 minutes ago) Visual Flight Rules
Wind Visibility Clouds
280° at 6 knots 15 miles
  • Scattered at 8,500' AGL
Temperatures Readings
Current 3°C / 37°F
Dewpoint 1°C / 34°F
Humidity 87%
Altimeter 30.18" Hg
Pressure 1022.3 hPa
Elevation 43
METAR CYQI 220600Z 28006KT 15SM SCT085 03/01 A3018 RMK AC4 SLP223
Observed Flight Rules
Apr-22 @ 06:00 UTC
(51 minutes ago)
VFR
Wind Visibility
280° at 6 knots 15 miles
Clouds
  • Scattered at 8,500' AGL
Temperature Dewpoint
3°C / 37°F 1°C / 34°F
Humidity Altimeter Pressure
87% 30.18" Hg 1022.3 hPa